sensor_id;sensor_type;location;lat;lon;timestamp;pressure;altitude;pressure_sealevel;temperature;humidity
77450;BME280;66536;53.150;18.172;2024-01-10T00:00:14;103300.46;;;-5.52;80.07
77450;BME280;66536;53.150;18.172;2024-01-10T00:03:01;103296.17;;;-5.49;80.25
77450;BME280;66536;53.150;18.172;2024-01-10T00:05:28;103290.21;;;-5.46;80.26
77450;BME280;66536;53.150;18.172;2024-01-10T00:07:55;103283.77;;;-5.45;80.50
77450;BME280;66536;53.150;18.172;2024-01-10T00:10:22;103287.93;;;-5.43;80.44
77450;BME280;66536;53.150;18.172;2024-01-10T00:12:49;103289.14;;;-5.38;80.49
77450;BME280;66536;53.150;18.172;2024-01-10T00:15:15;103290.71;;;-5.33;80.63
77450;BME280;66536;53.150;18.172;2024-01-10T00:17:42;103286.48;;;-5.32;80.71
77450;BME280;66536;53.150;18.172;2024-01-10T00:20:09;103275.83;;;-5.31;80.84
77450;BME280;66536;53.150;18.172;2024-01-10T00:22:36;103270.06;;;-5.29;80.95
77450;BME280;66536;53.150;18.172;2024-01-10T00:25:03;103267.96;;;-5.26;81.02
77450;BME280;66536;53.150;18.172;2024-01-10T00:27:31;103265.74;;;-5.25;81.13
77450;BME280;66536;53.150;18.172;2024-01-10T00:29:58;103260.14;;;-5.23;81.13
77450;BME280;66536;53.150;18.172;2024-01-10T00:32:24;103256.04;;;-5.21;81.29
77450;BME280;66536;53.150;18.172;2024-01-10T00:34:51;103251.58;;;-5.18;81.26
77450;BME280;66536;53.150;18.172;2024-01-10T00:37:18;103248.22;;;-5.17;81.33
77450;BME280;66536;53.150;18.172;2024-01-10T00:39:44;103251.29;;;-5.19;81.37
77450;BME280;66536;53.150;18.172;2024-01-10T00:42:11;103245.24;;;-5.20;81.59
77450;BME280;66536;53.150;18.172;2024-01-10T00:44:38;103240.85;;;-5.19;81.69
77450;BME280;66536;53.150;18.172;2024-01-10T00:47:05;103239.02;;;-5.19;81.73
77450;BME280;66536;53.150;18.172;2024-01-10T00:49:32;103237.41;;;-5.23;82.03
77450;BME280;66536;53.150;18.172;2024-01-10T00:51:59;103237.88;;;-5.27;82.14
77450;BME280;66536;53.150;18.172;2024-01-10T00:54:26;103242.91;;;-5.26;82.25
77450;BME280;66536;53.150;18.172;2024-01-10T00:56:53;103243.83;;;-5.23;82.35
77450;BME280;66536;53.150;18.172;2024-01-10T00:59:20;103245.98;;;-5.22;82.32
77450;BME280;66536;53.150;18.172;2024-01-10T01:01:46;103249.60;;;-5.19;82.29
77450;BME280;66536;53.150;18.172;2024-01-10T01:04:13;103250.67;;;-5.15;82.41
77450;BME280;66536;53.150;18.172;2024-01-10T01:06:40;103250.08;;;-5.12;82.58
77450;BME280;66536;53.150;18.172;2024-01-10T01:09:07;103247.69;;;-5.10;82.58
77450;BME280;66536;53.150;18.172;2024-01-10T01:11:34;103248.52;;;-5.10;82.75
77450;BME280;66536;53.150;18.172;2024-01-10T01:14:01;103247.95;;;-5.07;82.85
77450;BME280;66536;53.150;18.172;2024-01-10T01:16:27;103246.19;;;-5.05;82.85
77450;BME280;66536;53.150;18.172;2024-01-10T01:18:54;103245.45;;;-5.03;82.92
77450;BME280;66536;53.150;18.172;2024-01-10T01:21:21;103245.52;;;-5.05;82.99
77450;BME280;66536;53.150;18.172;2024-01-10T01:23:48;103248.57;;;-5.05;83.11
77450;BME280;66536;53.150;18.172;2024-01-10T01:26:14;103244.18;;;-5.05;83.21
77450;BME280;66536;53.150;18.172;2024-01-10T01:28:41;103238.45;;;-5.05;83.35
77450;BME280;66536;53.150;18.172;2024-01-10T01:31:08;103243.71;;;-5.06;83.48
77450;BME280;66536;53.150;18.172;2024-01-10T01:33:35;103236.58;;;-5.10;83.73
77450;BME280;66536;53.150;18.172;2024-01-10T01:36:02;103225.18;;;-5.13;83.93
77450;BME280;66536;53.150;18.172;2024-01-10T01:38:30;103231.69;;;-5.10;83.92
77450;BME280;66536;53.150;18.172;2024-01-10T01:40:57;103237.54;;;-5.08;83.89
77450;BME280;66536;53.150;18.172;2024-01-10T01:43:25;103231.59;;;-5.06;84.09
77450;BME280;66536;53.150;18.172;2024-01-10T01:45:53;103231.47;;;-5.02;84.08
77450;BME280;66536;53.150;18.172;2024-01-10T01:48:23;103228.69;;;-4.99;84.24
77450;BME280;66536;53.150;18.172;2024-01-10T01:50:53;103224.58;;;-4.97;84.24
77450;BME280;66536;53.150;18.172;2024-01-10T01:53:21;103225.73;;;-4.96;84.36
77450;BME280;66536;53.150;18.172;2024-01-10T01:55:48;103223.11;;;-4.93;84.49
77450;BME280;66536;53.150;18.172;2024-01-10T01:58:16;103214.05;;;-4.88;84.53
77450;BME280;66536;53.150;18.172;2024-01-10T02:00:44;103205.16;;;-4.84;84.48
77450;BME280;66536;53.150;18.172;2024-01-10T02:03:11;103202.86;;;-4.80;84.51
77450;BME280;66536;53.150;18.172;2024-01-10T02:05:38;103202.09;;;-4.77;84.59
77450;BME280;66536;53.150;18.172;2024-01-10T02:08:06;103193.27;;;-4.74;84.63
77450;BME280;66536;53.150;18.172;2024-01-10T02:10:33;103188.51;;;-4.73;84.66
77450;BME280;66536;53.150;18.172;2024-01-10T02:13:01;103185.23;;;-4.70;84.77
77450;BME280;66536;53.150;18.172;2024-01-10T02:15:28;103190.41;;;-4.69;84.89
77450;BME280;66536;53.150;18.172;2024-01-10T02:17:55;103187.84;;;-4.67;85.01
77450;BME280;66536;53.150;18.172;2024-01-10T02:20:22;103185.73;;;-4.66;85.13
77450;BME280;66536;53.150;18.172;2024-01-10T02:22:49;103188.89;;;-4.64;85.09
77450;BME280;66536;53.150;18.172;2024-01-10T02:25:17;103187.79;;;-4.61;85.21
77450;BME280;66536;53.150;18.172;2024-01-10T02:27:44;103186.77;;;-4.60;85.26
77450;BME280;66536;53.150;18.172;2024-01-10T02:30:11;103188.61;;;-4.60;85.41
77450;BME280;66536;53.150;18.172;2024-01-10T02:32:38;103193.27;;;-4.58;85.57
77450;BME280;66536;53.150;18.172;2024-01-10T02:35:06;103184.61;;;-4.57;85.70
77450;BME280;66536;53.150;18.172;2024-01-10T02:37:33;103191.09;;;-4.54;85.79
77450;BME280;66536;53.150;18.172;2024-01-10T02:40:00;103193.69;;;-4.50;85.88
77450;BME280;66536;53.150;18.172;2024-01-10T02:42:27;103203.48;;;-4.46;86.00
77450;BME280;66536;53.150;18.172;2024-01-10T02:44:55;103203.02;;;-4.42;86.28
77450;BME280;66536;53.150;18.172;2024-01-10T02:47:21;103204.55;;;-4.37;86.37
77450;BME280;66536;53.150;18.172;2024-01-10T02:49:48;103201.11;;;-4.35;86.45
77450;BME280;66536;53.150;18.172;2024-01-10T02:52:15;103196.29;;;-4.37;86.58
77450;BME280;66536;53.150;18.172;2024-01-10T02:54:42;103199.94;;;-4.35;86.72
77450;BME280;66536;53.150;18.172;2024-01-10T02:57:08;103200.66;;;-4.32;86.83
77450;BME280;66536;53.150;18.172;2024-01-10T02:59:35;103200.07;;;-4.29;86.84
77450;BME280;66536;53.150;18.172;2024-01-10T03:02:02;103193.23;;;-4.26;86.79
77450;BME280;66536;53.150;18.172;2024-01-10T03:04:30;103186.23;;;-4.23;86.82
77450;BME280;66536;53.150;18.172;2024-01-10T03:06:56;103188.18;;;-4.21;86.81
77450;BME280;66536;53.150;18.172;2024-01-10T03:09:24;103194.83;;;-4.18;86.87
77450;BME280;66536;53.150;18.172;2024-01-10T03:11:50;103189.38;;;-4.16;86.90
77450;BME280;66536;53.150;18.172;2024-01-10T03:14:17;103184.58;;;-4.14;87.10
77450;BME280;66536;53.150;18.172;2024-01-10T03:16:44;103183.20;;;-4.13;87.13
77450;BME280;66536;53.150;18.172;2024-01-10T03:19:11;103181.34;;;-4.13;87.24
77450;BME280;66536;53.150;18.172;2024-01-10T03:21:37;103180.20;;;-4.14;87.31
77450;BME280;66536;53.150;18.172;2024-01-10T03:24:05;103184.29;;;-4.15;87.34
77450;BME280;66536;53.150;18.172;2024-01-10T03:26:31;103182.96;;;-4.16;87.50
77450;BME280;66536;53.150;18.172;2024-01-10T03:28:58;103181.02;;;-4.18;87.53
77450;BME280;66536;53.150;18.172;2024-01-10T03:31:27;103175.98;;;-4.19;87.71
77450;BME280;66536;53.150;18.172;2024-01-10T03:33:54;103170.88;;;-4.18;87.89
77450;BME280;66536;53.150;18.172;2024-01-10T03:36:21;103164.41;;;-4.16;88.00
77450;BME280;66536;53.150;18.172;2024-01-10T03:38:48;103160.34;;;-4.15;88.04
77450;BME280;66536;53.150;18.172;2024-01-10T03:41:17;103155.28;;;-4.15;88.23
77450;BME280;66536;53.150;18.172;2024-01-10T03:43:44;103153.40;;;-4.14;88.34
77450;BME280;66536;53.150;18.172;2024-01-10T03:46:12;103149.64;;;-4.12;88.41
77450;BME280;66536;53.150;18.172;2024-01-10T03:48:40;103152.09;;;-4.10;88.46
77450;BME280;66536;53.150;18.172;2024-01-10T03:51:15;103154.64;;;-4.11;88.43
77450;BME280;66536;53.150;18.172;2024-01-10T03:53:42;103152.45;;;-4.11;88.58
77450;BME280;66536;53.150;18.172;2024-01-10T03:56:09;103143.09;;;-4.08;88.74
77450;BME280;66536;53.150;18.172;2024-01-10T03:58:36;103144.36;;;-4.06;88.90
77450;BME280;66536;53.150;18.172;2024-01-10T04:01:06;103143.95;;;-4.04;88.96
77450;BME280;66536;53.150;18.172;2024-01-10T04:03:33;103143.40;;;-4.02;88.93
77450;BME280;66536;53.150;18.172;2024-01-10T04:06:00;103140.98;;;-4.01;88.98
77450;BME280;66536;53.150;18.172;2024-01-10T04:08:27;103136.92;;;-4.00;89.11
77450;BME280;66536;53.150;18.172;2024-01-10T04:10:54;103134.04;;;-4.00;89.20
77450;BME280;66536;53.150;18.172;2024-01-10T04:13:21;103133.34;;;-3.99;89.26
77450;BME280;66536;53.150;18.172;2024-01-10T04:15:47;103129.27;;;-3.98;89.41
77450;BME280;66536;53.150;18.172;2024-01-10T04:18:15;103137.83;;;-3.97;89.54
77450;BME280;66536;53.150;18.172;2024-01-10T04:20:42;103137.67;;;-3.98;89.58
77450;BME280;66536;53.150;18.172;2024-01-10T04:23:09;103140.89;;;-3.98;89.68
77450;BME280;66536;53.150;18.172;2024-01-10T04:25:36;103134.64;;;-3.97;89.69
77450;BME280;66536;53.150;18.172;2024-01-10T04:28:03;103127.66;;;-3.96;89.68
77450;BME280;66536;53.150;18.172;2024-01-10T04:30:30;103128.48;;;-3.95;89.61
77450;BME280;66536;53.150;18.172;2024-01-10T04:32:57;103123.74;;;-3.95;89.46
77450;BME280;66536;53.150;18.172;2024-01-10T04:35:24;103123.91;;;-3.94;89.38
77450;BME280;66536;53.150;18.172;2024-01-10T04:37:50;103121.72;;;-3.94;89.21
77450;BME280;66536;53.150;18.172;2024-01-10T04:40:17;103118.05;;;-3.95;89.32
77450;BME280;66536;53.150;18.172;2024-01-10T04:42:44;103123.64;;;-3.96;89.20
77450;BME280;66536;53.150;18.172;2024-01-10T04:45:11;103119.42;;;-3.96;89.26
77450;BME280;66536;53.150;18.172;2024-01-10T04:47:38;103120.13;;;-3.97;89.19
77450;BME280;66536;53.150;18.172;2024-01-10T04:50:05;103117.79;;;-3.98;89.21
77450;BME280;66536;53.150;18.172;2024-01-10T04:52:32;103115.31;;;-4.00;89.30
77450;BME280;66536;53.150;18.172;2024-01-10T04:54:59;103116.04;;;-4.01;89.25
77450;BME280;66536;53.150;18.172;2024-01-10T04:57:25;103113.73;;;-4.02;89.17
77450;BME280;66536;53.150;18.172;2024-01-10T04:59:52;103113.77;;;-4.03;89.24
77450;BME280;66536;53.150;18.172;2024-01-10T05:02:20;103115.84;;;-4.05;89.25
77450;BME280;66536;53.150;18.172;2024-01-10T05:04:46;103116.73;;;-4.07;89.23
77450;BME280;66536;53.150;18.172;2024-01-10T05:07:13;103120.17;;;-4.08;89.35
77450;BME280;66536;53.150;18.172;2024-01-10T05:09:40;103116.29;;;-4.13;89.48
77450;BME280;66536;53.150;18.172;2024-01-10T05:12:07;103123.95;;;-4.16;89.59
77450;BME280;66536;53.150;18.172;2024-01-10T05:14:34;103124.29;;;-4.16;89.64
77450;BME280;66536;53.150;18.172;2024-01-10T05:17:01;103117.45;;;-4.18;89.82
77450;BME280;66536;53.150;18.172;2024-01-10T05:19:28;103118.38;;;-4.20;89.94
77450;BME280;66536;53.150;18.172;2024-01-10T05:21:56;103124.16;;;-4.21;90.04
77450;BME280;66536;53.150;18.172;2024-01-10T05:24:23;103123.77;;;-4.25;90.11
77450;BME280;66536;53.150;18.172;2024-01-10T05:26:51;103124.01;;;-4.27;90.16
77450;BME280;66536;53.150;18.172;2024-01-10T05:29:17;103119.82;;;-4.28;90.31
77450;BME280;66536;53.150;18.172;2024-01-10T05:31:46;103122.83;;;-4.27;90.38
77450;BME280;66536;53.150;18.172;2024-01-10T05:34:13;103119.48;;;-4.27;90.53
77450;BME280;66536;53.150;18.172;2024-01-10T05:36:40;103111.33;;;-4.25;90.57
77450;BME280;66536;53.150;18.172;2024-01-10T05:39:06;103111.27;;;-4.24;90.61
77450;BME280;66536;53.150;18.172;2024-01-10T05:41:33;103108.82;;;-4.21;90.66
77450;BME280;66536;53.150;18.172;2024-01-10T05:44:00;103104.92;;;-4.20;90.67
77450;BME280;66536;53.150;18.172;2024-01-10T05:46:27;103108.89;;;-4.18;90.71
77450;BME280;66536;53.150;18.172;2024-01-10T05:48:55;103114.92;;;-4.18;90.70
77450;BME280;66536;53.150;18.172;2024-01-10T05:51:22;103111.98;;;-4.16;90.82
77450;BME280;66536;53.150;18.172;2024-01-10T05:53:49;103113.58;;;-4.13;90.84
77450;BME280;66536;53.150;18.172;2024-01-10T05:56:16;103115.00;;;-4.10;90.92
77450;BME280;66536;53.150;18.172;2024-01-10T05:58:42;103115.21;;;-4.06;90.90
77450;BME280;66536;53.150;18.172;2024-01-10T06:01:09;103112.63;;;-4.04;90.74
77450;BME280;66536;53.150;18.172;2024-01-10T06:03:36;103114.73;;;-4.02;90.77
77450;BME280;66536;53.150;18.172;2024-01-10T06:06:04;103112.95;;;-3.99;90.79
77450;BME280;66536;53.150;18.172;2024-01-10T06:08:31;103111.00;;;-3.96;90.84
77450;BME280;66536;53.150;18.172;2024-01-10T06:10:57;103105.52;;;-3.94;90.80
77450;BME280;66536;53.150;18.172;2024-01-10T06:13:24;103108.19;;;-3.93;90.77
77450;BME280;66536;53.150;18.172;2024-01-10T06:15:51;103116.18;;;-3.91;90.78
77450;BME280;66536;53.150;18.172;2024-01-10T06:18:18;103115.41;;;-3.88;90.82
77450;BME280;66536;53.150;18.172;2024-01-10T06:20:45;103118.07;;;-3.87;90.81
77450;BME280;66536;53.150;18.172;2024-01-10T06:23:12;103113.44;;;-3.85;90.74
77450;BME280;66536;53.150;18.172;2024-01-10T06:25:39;103116.38;;;-3.82;90.73
77450;BME280;66536;53.150;18.172;2024-01-10T06:28:06;103112.99;;;-3.77;90.86
77450;BME280;66536;53.150;18.172;2024-01-10T06:30:33;103110.84;;;-3.73;90.95
77450;BME280;66536;53.150;18.172;2024-01-10T06:33:01;103114.70;;;-3.68;90.93
77450;BME280;66536;53.150;18.172;2024-01-10T06:35:29;103113.34;;;-3.63;90.90
77450;BME280;66536;53.150;18.172;2024-01-10T06:37:56;103107.94;;;-3.59;90.98
77450;BME280;66536;53.150;18.172;2024-01-10T06:40:23;103106.09;;;-3.54;90.85
77450;BME280;66536;53.150;18.172;2024-01-10T06:42:50;103109.64;;;-3.50;90.85
77450;BME280;66536;53.150;18.172;2024-01-10T06:45:17;103109.88;;;-3.47;90.80
77450;BME280;66536;53.150;18.172;2024-01-10T06:47:46;103112.27;;;-3.44;90.76
77450;BME280;66536;53.150;18.172;2024-01-10T06:50:13;103108.14;;;-3.42;90.72
77450;BME280;66536;53.150;18.172;2024-01-10T06:52:40;103102.30;;;-3.39;90.67
77450;BME280;66536;53.150;18.172;2024-01-10T06:55:07;103106.75;;;-3.36;90.61
77450;BME280;66536;53.150;18.172;2024-01-10T06:57:35;103110.50;;;-3.33;90.63
77450;BME280;66536;53.150;18.172;2024-01-10T07:00:02;103108.98;;;-3.29;90.70
77450;BME280;66536;53.150;18.172;2024-01-10T07:02:32;103102.22;;;-3.28;90.65
77450;BME280;66536;53.150;18.172;2024-01-10T07:05:03;103097.30;;;-3.27;90.58
77450;BME280;66536;53.150;18.172;2024-01-10T07:07:34;103097.42;;;-3.26;90.62
77450;BME280;66536;53.150;18.172;2024-01-10T07:10:02;103099.16;;;-3.23;90.62
77450;BME280;66536;53.150;18.172;2024-01-10T07:12:32;103096.16;;;-3.20;90.65
77450;BME280;66536;53.150;18.172;2024-01-10T07:15:00;103101.97;;;-3.17;90.60
77450;BME280;66536;53.150;18.172;2024-01-10T07:17:29;103097.69;;;-3.15;90.56
77450;BME280;66536;53.150;18.172;2024-01-10T07:19:57;103094.94;;;-3.14;90.53
77450;BME280;66536;53.150;18.172;2024-01-10T07:22:25;103095.17;;;-3.12;90.59
77450;BME280;66536;53.150;18.172;2024-01-10T07:24:54;103097.13;;;-3.10;90.61
77450;BME280;66536;53.150;18.172;2024-01-10T07:27:21;103102.62;;;-3.08;90.59
77450;BME280;66536;53.150;18.172;2024-01-10T07:29:50;103102.98;;;-3.08;90.69
77450;BME280;66536;53.150;18.172;2024-01-10T07:32:17;103109.44;;;-3.05;90.84
77450;BME280;66536;53.150;18.172;2024-01-10T07:34:46;103108.57;;;-3.04;90.79
77450;BME280;66536;53.150;18.172;2024-01-10T07:37:13;103107.84;;;-3.03;90.86
77450;BME280;66536;53.150;18.172;2024-01-10T07:39:43;103105.79;;;-3.02;90.85
77450;BME280;66536;53.150;18.172;2024-01-10T07:42:10;103102.35;;;-3.00;90.81
77450;BME280;66536;53.150;18.172;2024-01-10T07:44:36;103101.95;;;-2.99;90.90
77450;BME280;66536;53.150;18.172;2024-01-10T07:47:03;103102.04;;;-2.97;90.97
77450;BME280;66536;53.150;18.172;2024-01-10T07:49:30;103105.54;;;-2.96;90.88
77450;BME280;66536;53.150;18.172;2024-01-10T07:51:58;103105.27;;;-2.93;91.05
77450;BME280;66536;53.150;18.172;2024-01-10T07:54:25;103112.92;;;-2.91;91.08
77450;BME280;66536;53.150;18.172;2024-01-10T07:56:52;103111.77;;;-2.87;91.13
77450;BME280;66536;53.150;18.172;2024-01-10T07:59:21;103114.84;;;-2.83;91.11
77450;BME280;66536;53.150;18.172;2024-01-10T08:01:56;103115.77;;;-2.77;91.16
77450;BME280;66536;53.150;18.172;2024-01-10T08:04:25;103111.59;;;-2.74;90.98
77450;BME280;66536;53.150;18.172;2024-01-10T08:06:53;103118.17;;;-2.70;91.00
77450;BME280;66536;53.150;18.172;2024-01-10T08:09:20;103115.08;;;-2.64;91.04
77450;BME280;66536;53.150;18.172;2024-01-10T08:11:47;103118.19;;;-2.58;91.02
77450;BME280;66536;53.150;18.172;2024-01-10T08:14:14;103122.58;;;-2.50;91.13
77450;BME280;66536;53.150;18.172;2024-01-10T08:16:42;103124.80;;;-2.42;90.94
77450;BME280;66536;53.150;18.172;2024-01-10T08:19:09;103123.88;;;-2.36;90.84
77450;BME280;66536;53.150;18.172;2024-01-10T08:21:36;103120.63;;;-2.31;90.84
77450;BME280;66536;53.150;18.172;2024-01-10T08:24:04;103120.55;;;-2.25;90.80
77450;BME280;66536;53.150;18.172;2024-01-10T08:26:32;103120.14;;;-2.19;90.69
77450;BME280;66536;53.150;18.172;2024-01-10T08:29:00;103118.48;;;-2.16;90.53
77450;BME280;66536;53.150;18.172;2024-01-10T08:31:26;103118.10;;;-2.12;90.65
77450;BME280;66536;53.150;18.172;2024-01-10T08:33:53;103128.36;;;-2.06;90.55
77450;BME280;66536;53.150;18.172;2024-01-10T08:36:20;103125.06;;;-2.04;90.32
77450;BME280;66536;53.150;18.172;2024-01-10T08:38:47;103130.02;;;-2.01;90.33
77450;BME280;66536;53.150;18.172;2024-01-10T08:41:15;103131.48;;;-1.96;90.45
77450;BME280;66536;53.150;18.172;2024-01-10T08:43:42;103130.10;;;-1.91;90.31
77450;BME280;66536;53.150;18.172;2024-01-10T08:46:09;103132.72;;;-1.85;90.34
77450;BME280;66536;53.150;18.172;2024-01-10T08:48:38;103133.88;;;-1.81;90.21
77450;BME280;66536;53.150;18.172;2024-01-10T08:51:05;103139.01;;;-1.79;90.05
77450;BME280;66536;53.150;18.172;2024-01-10T08:53:32;103141.15;;;-1.73;90.10
77450;BME280;66536;53.150;18.172;2024-01-10T08:55:59;103143.02;;;-1.70;89.76
77450;BME280;66536;53.150;18.172;2024-01-10T08:58:26;103139.01;;;-1.67;89.88
77450;BME280;66536;53.150;18.172;2024-01-10T09:00:53;103140.42;;;-1.61;89.91
77450;BME280;66536;53.150;18.172;2024-01-10T09:03:22;103140.27;;;-1.58;89.64
77450;BME280;66536;53.150;18.172;2024-01-10T09:05:50;103136.70;;;-1.57;89.58
77450;BME280;66536;53.150;18.172;2024-01-10T09:08:18;103133.98;;;-1.53;89.61
77450;BME280;66536;53.150;18.172;2024-01-10T09:10:46;103133.84;;;-1.54;89.29
77450;BME280;66536;53.150;18.172;2024-01-10T09:13:15;103130.87;;;-1.52;89.58
77450;BME280;66536;53.150;18.172;2024-01-10T09:15:43;103134.12;;;-1.49;89.34
77450;BME280;66536;53.150;18.172;2024-01-10T09:18:11;103132.44;;;-1.49;89.29
77450;BME280;66536;53.150;18.172;2024-01-10T09:20:40;103118.58;;;-1.46;89.34
77450;BME280;66536;53.150;18.172;2024-01-10T09:23:08;103114.64;;;-1.41;89.31
77450;BME280;66536;53.150;18.172;2024-01-10T09:25:36;103110.76;;;-1.38;89.15
77450;BME280;66536;53.150;18.172;2024-01-10T09:28:04;103107.77;;;-1.39;89.07
77450;BME280;66536;53.150;18.172;2024-01-10T09:30:32;103109.21;;;-1.34;89.24
77450;BME280;66536;53.150;18.172;2024-01-10T09:32:58;103102.20;;;-1.28;89.06
77450;BME280;66536;53.150;18.172;2024-01-10T09:35:26;103098.61;;;-1.28;88.80
77450;BME280;66536;53.150;18.172;2024-01-10T09:37:53;103093.31;;;-1.27;88.82
77450;BME280;66536;53.150;18.172;2024-01-10T09:40:20;103097.92;;;-1.24;88.83
77450;BME280;66536;53.150;18.172;2024-01-10T09:42:49;103086.33;;;-1.19;88.83
77450;BME280;66536;53.150;18.172;2024-01-10T09:45:18;103080.16;;;-1.17;88.53
77450;BME280;66536;53.150;18.172;2024-01-10T09:47:56;103078.98;;;-1.14;88.64
77450;BME280;66536;53.150;18.172;2024-01-10T09:50:24;103068.52;;;-1.08;88.52
77450;BME280;66536;53.150;18.172;2024-01-10T09:52:53;103065.34;;;-1.05;88.16
77450;BME280;66536;53.150;18.172;2024-01-10T09:55:26;103066.48;;;-1.04;88.21
77450;BME280;66536;53.150;18.172;2024-01-10T09:57:57;103072.42;;;-0.97;88.56
77450;BME280;66536;53.150;18.172;2024-01-10T10:00:24;103073.96;;;-0.87;88.75
77450;BME280;66536;53.150;18.172;2024-01-10T10:02:53;103073.84;;;-0.77;88.68
77450;BME280;66536;53.150;18.172;2024-01-10T10:05:24;103072.23;;;-0.69;88.24
77450;BME280;66536;53.150;18.172;2024-01-10T10:07:53;103069.84;;;-0.68;88.08
77450;BME280;66536;53.150;18.172;2024-01-10T10:10:21;103072.86;;;-0.64;87.88
77450;BME280;66536;53.150;18.172;2024-01-10T10:12:52;103074.41;;;-0.65;87.64
77450;BME280;66536;53.150;18.172;2024-01-10T10:15:24;103073.75;;;-0.65;87.61
77450;BME280;66536;53.150;18.172;2024-01-10T10:17:54;103078.66;;;-0.68;87.33
77450;BME280;66536;53.150;18.172;2024-01-10T10:20:23;103075.82;;;-0.69;87.45
77450;BME280;66536;53.150;18.172;2024-01-10T10:23:00;103085.25;;;-0.65;87.85
77450;BME280;66536;53.150;18.172;2024-01-10T10:25:33;103082.68;;;-0.64;87.33
77450;BME280;66536;53.150;18.172;2024-01-10T10:28:02;103088.21;;;-0.67;87.39
77450;BME280;66536;53.150;18.172;2024-01-10T10:30:31;103088.52;;;-0.62;87.58
77450;BME280;66536;53.150;18.172;2024-01-10T10:32:58;103086.00;;;-0.62;87.35
77450;BME280;66536;53.150;18.172;2024-01-10T10:35:25;103086.34;;;-0.63;87.15
77450;BME280;66536;53.150;18.172;2024-01-10T10:37:53;103086.44;;;-0.68;87.08
77450;BME280;66536;53.150;18.172;2024-01-10T10:40:21;103085.41;;;-0.71;87.21
77450;BME280;66536;53.150;18.172;2024-01-10T10:42:54;103085.66;;;-0.73;87.39
77450;BME280;66536;53.150;18.172;2024-01-10T10:45:22;103081.92;;;-0.79;87.12
77450;BME280;66536;53.150;18.172;2024-01-10T10:48:01;103079.70;;;-0.83;87.53
77450;BME280;66536;53.150;18.172;2024-01-10T10:50:32;103074.91;;;-0.82;87.66
77450;BME280;66536;53.150;18.172;2024-01-10T10:53:03;103072.14;;;-0.87;87.30
77450;BME280;66536;53.150;18.172;2024-01-10T10:55:31;103069.17;;;-0.89;87.58
77450;BME280;66536;53.150;18.172;2024-01-10T10:58:01;103071.81;;;-0.91;87.58
77450;BME280;66536;53.150;18.172;2024-01-10T11:00:29;103068.55;;;-0.97;87.59
77450;BME280;66536;53.150;18.172;2024-01-10T11:02:56;103066.52;;;-0.97;87.84
77450;BME280;66536;53.150;18.172;2024-01-10T11:05:25;103066.48;;;-0.93;88.13
77450;BME280;66536;53.150;18.172;2024-01-10T11:07:52;103066.20;;;-0.91;87.92
77450;BME280;66536;53.150;18.172;2024-01-10T11:10:26;103057.72;;;-0.94;87.64
77450;BME280;66536;53.150;18.172;2024-01-10T11:13:11;103055.25;;;-0.92;88.00
77450;BME280;66536;53.150;18.172;2024-01-10T11:15:59;103048.05;;;-0.87;87.81
77450;BME280;66536;53.150;18.172;2024-01-10T11:21:36;103046.14;;;-0.86;87.89
77450;BME280;66536;53.150;18.172;2024-01-10T11:24:08;103045.09;;;-0.89;87.38
77450;BME280;66536;53.150;18.172;2024-01-10T11:26:37;103043.95;;;-0.93;87.70
77450;BME280;66536;53.150;18.172;2024-01-10T11:29:05;103044.87;;;-0.95;87.69
77450;BME280;66536;53.150;18.172;2024-01-10T11:31:33;103047.55;;;-0.97;87.75
77450;BME280;66536;53.150;18.172;2024-01-10T11:34:02;103050.04;;;-1.00;87.93
77450;BME280;66536;53.150;18.172;2024-01-10T11:36:30;103050.30;;;-0.99;88.12
77450;BME280;66536;53.150;18.172;2024-01-10T11:39:02;103049.81;;;-0.95;88.18
77450;BME280;66536;53.150;18.172;2024-01-10T11:41:33;103042.27;;;-0.93;88.12
77450;BME280;66536;53.150;18.172;2024-01-10T11:44:27;103035.33;;;-1.01;87.81
77450;BME280;66536;53.150;18.172;2024-01-10T11:46:59;103033.06;;;-1.03;88.17
77450;BME280;66536;53.150;18.172;2024-01-10T11:49:28;103026.79;;;-1.06;88.08
77450;BME280;66536;53.150;18.172;2024-01-10T11:51:57;103025.68;;;-1.08;88.12
77450;BME280;66536;53.150;18.172;2024-01-10T11:54:35;103021.09;;;-1.11;88.17
77450;BME280;66536;53.150;18.172;2024-01-10T11:57:07;103026.21;;;-1.12;88.28
77450;BME280;66536;53.150;18.172;2024-01-10T11:59:38;103026.94;;;-1.17;88.23
77450;BME280;66536;53.150;18.172;2024-01-10T12:02:07;103030.78;;;-1.15;88.55
77450;BME280;66536;53.150;18.172;2024-01-10T12:04:35;103029.19;;;-1.14;88.31
77450;BME280;66536;53.150;18.172;2024-01-10T12:07:03;103026.79;;;-1.17;88.31
77450;BME280;66536;53.150;18.172;2024-01-10T12:09:35;103024.04;;;-1.19;88.31
77450;BME280;66536;53.150;18.172;2024-01-10T12:12:04;103019.16;;;-1.20;88.52
77450;BME280;66536;53.150;18.172;2024-01-10T12:14:34;103022.92;;;-1.21;88.33
77450;BME280;66536;53.150;18.172;2024-01-10T12:17:02;103025.05;;;-1.23;88.59
77450;BME280;66536;53.150;18.172;2024-01-10T12:19:32;103026.08;;;-1.20;88.75
77450;BME280;66536;53.150;18.172;2024-01-10T12:22:02;103023.59;;;-1.21;88.57
77450;BME280;66536;53.150;18.172;2024-01-10T12:24:30;103022.14;;;-1.22;88.62
77450;BME280;66536;53.150;18.172;2024-01-10T12:26:57;103018.05;;;-1.22;88.66
77450;BME280;66536;53.150;18.172;2024-01-10T12:29:25;103025.96;;;-1.17;88.84
77450;BME280;66536;53.150;18.172;2024-01-10T12:31:53;103024.09;;;-1.17;88.60
77450;BME280;66536;53.150;18.172;2024-01-10T12:34:20;103018.54;;;-1.18;88.54
77450;BME280;66536;53.150;18.172;2024-01-10T12:36:49;103017.15;;;-1.17;88.63
77450;BME280;66536;53.150;18.172;2024-01-10T12:39:22;103014.10;;;-1.17;88.61
77450;BME280;66536;53.150;18.172;2024-01-10T12:41:50;103013.84;;;-1.19;88.52
77450;BME280;66536;53.150;18.172;2024-01-10T12:44:18;103011.64;;;-1.22;88.45
77450;BME280;66536;53.150;18.172;2024-01-10T12:46:52;103008.02;;;-1.24;88.52